Airfield :







YOU CAN JOIN US ON...

 
LOGIN :

Register | Disclaimer

   EN    FR    IT 

 









Legend :    VFR   Marginal VFR   IFR   Intensive IFR   Very Intensive IFR
Visi :
Ceiling :
>= 8 km
>= 3000ft
5 to 8 km
1000 to 3000 ft
1500m to 5 km
500 to 1000 ft
800 to 1500m
200 to 500 ft
< 800m
< 200 ft
Symbols :   Thunderstorms  Fog  Heavy snow  Heavy precipitations  Wind > 20 kt






- Airport Elevation : 166 ft
- IATA code : YCX


CYCX - Gagetown Heliport

CURRENT METAR :
  • 231900Z 06004KT 010V100 1SM RA BR OVC007 11/11 A2972 RMK ST8 DA155FT SLP065

EXPIRED METARs :
  • 231823Z 01005KT 320V020 2 1/2SM RA BR OVC002 11/11 A2972 RMK ST8 DA129FT SLP065
  • 231800Z 08006KT 2 1/2SM RA BR OVC011 11/11 A2973 RMK ST8 DA118FT SLP069
  • 231709Z 30003KT 1SM +RA BR OVC007 11/11 A2979 RMK ST8 DA9FT VIS VRB 3/4-1 1/2 PRESRR SLP089
  • 231650Z 12006KT 1 1/2SM +RA OVC012 11/11 A2977 RMK ST8 DA57FT SLP083
  • 231641Z 11007G16KT 5SM RA BR OVC012 11/11 A2977 RMK ST8 DA67FT SLP082

TAF AMD TAF CYCX
Valid from the 23 at 18:00 until the 24 at 06:00 UTC


231839Z 2318/2406 11005KT 5SM -RA BR OVC010
TEMPO 2318/2320 VRB10G25KT 3/4SM +TSRA BR BKN003 OVC010CB
BECMG 2320/2322 23007KT
FM240000 25007KT 6SM -RA BR BKN010 OVC020
TEMPO 2400/2406 P6SM NSW SCT010 BKN015 RMK NXT FCST BY 240000Z



MET'MAP, your aeronautical weather chart ! - Copyright ORBIFLY December 2007 - Disclaimer

ORBIFLY MET'MAP TEAM :

Programming & Development : Alexandra Zaïnal
Concept & Development : Baudouin d'Aumeries
Co-Development & Prog : Marc-Olivier Méhu
Technical & hardware support : Manuel Goepfert

Contact : metmap@orbifly.com




SOURCES & CREDITS :

   NOAA